Time;durP1;ratioP1;P1;durP2;ratioP2;P2;SDS_P1;SDS_P2;PMS_P1;PMS_P2;Temp;Humidity;BMP_temperature;BMP_pressure;BME280_temperature;BME280_humidity;BME280_pressure;Samples;Min_cycle;Max_cycle;Signal;HPM_P1;HPM_P2
2021/09/25 00:02:35;;;;;;;;;5.00;4.25;;;;;20.56;45.06;98729.66;6091690;28;96686;-63
2021/09/25 00:05:42;;;;;;;;;6.00;4.00;;;;;20.55;44.92;98735.41;6092450;28;96705;-63
2021/09/25 00:08:45;;;;;;;;;5.00;5.00;;;;;20.63;44.89;98732.84;6091753;28;97315;-62
2021/09/25 00:11:49;;;;;;;;;4.00;4.00;;;;;20.73;44.73;98737.38;6092842;28;97495;-62
2021/09/25 00:14:53;;;;;;;;;7.00;5.80;;;;;20.71;44.68;98732.22;6090544;28;99949;-62
2021/09/25 00:17:56;;;;;;;;;5.00;5.00;;;;;20.77;44.73;98732.16;6094300;28;96477;-62
2021/09/25 00:21:00;;;;;;;;;4.00;4.00;;;;;20.83;44.58;98731.78;6093825;28;97172;-61
2021/09/25 00:24:04;;;;;;;;;6.00;6.00;;;;;20.85;44.63;98726.84;6094292;28;96481;-61
2021/09/25 00:27:07;;;;;;;;;4.00;4.00;;;;;20.83;44.70;98734.53;6092466;28;98505;-63
2021/09/25 00:30:14;;;;;;;;;6.00;5.40;;;;;20.71;44.87;98734.13;6094088;28;97437;-62
2021/09/25 00:33:17;;;;;;;;;6.00;6.00;;;;;20.65;45.19;98729.81;6093809;28;97414;-60
2021/09/25 00:36:21;;;;;;;;;4.00;4.00;;;;;20.68;45.11;98732.78;6094977;28;97116;-62
2021/09/25 00:39:24;;;;;;;;;6.00;4.20;;;;;20.73;45.09;98731.91;6091575;28;96603;-61
2021/09/25 00:42:28;;;;;;;;;4.00;4.00;;;;;20.74;45.00;98730.81;6093198;28;97634;-61
2021/09/25 00:45:32;;;;;;;;;5.00;5.00;;;;;20.71;45.13;98729.47;6106225;28;97057;-62
2021/09/25 00:48:36;;;;;;;;;4.00;3.75;;;;;20.81;44.54;98730.47;6110549;28;96420;-61
2021/09/25 00:51:39;;;;;;;;;4.00;4.00;;;;;20.80;44.85;98729.66;6092850;28;97514;-61
2021/09/25 00:54:42;;;;;;;;;5.00;5.00;;;;;20.79;44.86;98729.94;6092316;28;97054;-59
2021/09/25 00:57:47;;;;;;;;;4.20;3.80;;;;;20.81;45.04;98731.28;6092142;28;97481;-60
2021/09/25 01:00:52;;;;;;;;;6.00;5.00;;;;;20.67;44.74;98709.22;6091972;28;96497;-61
2021/09/25 01:03:56;;;;;;;;;6.00;5.00;;;;;20.75;45.26;98727.78;6092483;28;97993;-59
2021/09/25 01:07:00;;;;;;;;;5.40;5.00;;;;;20.82;44.84;98732.09;6092429;28;97918;-59
2021/09/25 01:10:04;;;;;;;;;5.00;5.00;;;;;20.79;45.33;98730.75;6073986;28;96685;-60
2021/09/25 01:13:08;;;;;;;;;5.00;5.00;;;;;20.83;45.25;98730.97;6091963;28;96532;-62
2021/09/25 01:16:12;;;;;;;;;6.00;6.00;;;;;20.87;44.95;98723.78;6090995;28;97264;-62
2021/09/25 01:19:16;;;;;;;;;5.60;5.60;;;;;20.88;45.03;98723.50;6091668;28;96431;-59
2021/09/25 01:22:21;;;;;;;;;6.50;6.50;;;;;20.87;45.09;98718.31;6091766;28;97461;-59
2021/09/25 01:25:27;;;;;;;;;8.00;6.00;;;;;20.91;45.27;98716.66;6073060;28;97227;-63
2021/09/25 01:28:31;;;;;;;;;6.00;5.00;;;;;20.94;44.99;98711.38;6091804;28;97459;-59
2021/09/25 01:31:34;;;;;;;;;5.00;4.60;;;;;20.93;44.61;98712.47;6091967;28;96834;-59
2021/09/25 01:34:38;;;;;;;;;6.00;5.00;;;;;20.98;44.95;98712.44;6090875;28;96709;-60
2021/09/25 01:37:44;;;;;;;;;5.00;4.00;;;;;20.91;45.09;98713.91;6090008;28;96808;-59
2021/09/25 01:40:48;;;;;;;;;6.00;5.00;;;;;20.92;44.81;98708.09;6090939;28;96358;-62
2021/09/25 01:43:52;;;;;;;;;5.00;5.00;;;;;20.80;45.06;98698.69;6091906;28;96501;-60
2021/09/25 01:46:55;;;;;;;;;4.00;4.00;;;;;20.88;44.83;98707.06;6092056;28;97508;-60
2021/09/25 01:50:19;;;;;;;;;5.00;4.00;;;;;20.88;45.12;98711.72;6091138;28;97410;-60
2021/09/25 01:53:24;;;;;;;;;6.40;5.00;;;;;20.82;45.17;98710.19;6091331;28;97166;-61
2021/09/25 01:56:28;;;;;;;;;4.00;4.00;;;;;20.74;45.50;98708.88;6090959;28;96542;-61
2021/09/25 01:59:31;;;;;;;;;4.40;4.40;;;;;20.79;45.49;98713.50;6090018;28;96955;-61
2021/09/25 02:02:34;;;;;;;;;5.00;5.00;;;;;20.70;45.26;98716.88;6088815;28;96757;-61
2021/09/25 02:05:38;;;;;;;;;5.00;5.00;;;;;20.56;45.39;98688.56;6088200;28;96494;-59
2021/09/25 02:08:45;;;;;;;;;4.60;4.60;;;;;20.67;45.98;98711.19;6088635;28;97444;-59
2021/09/25 02:11:48;;;;;;;;;6.00;5.00;;;;;20.68;45.56;98705.38;6088752;28;96587;-62
2021/09/25 02:14:52;;;;;;;;;5.00;4.00;;;;;20.67;46.02;98706.50;6072367;28;99640;-59
2021/09/25 02:17:55;;;;;;;;;4.00;4.00;;;;;20.65;45.70;98708.72;6090766;28;97545;-59
2021/09/25 02:20:58;;;;;;;;;6.00;6.00;;;;;20.66;46.01;98715.03;6091361;28;96565;-62
2021/09/25 02:24:06;;;;;;;;;5.00;4.00;;;;;20.70;45.97;98714.13;6090908;28;96548;-60
2021/09/25 02:27:10;;;;;;;;;5.00;5.00;;;;;20.71;45.94;98713.03;6091293;28;97789;-62
2021/09/25 02:30:15;;;;;;;;;5.00;5.00;;;;;20.67;46.09;98717.44;6090940;28;97538;-59
2021/09/25 02:33:19;;;;;;;;;4.50;4.00;;;;;20.69;46.00;98714.44;6090651;28;98011;-62
2021/09/25 02:36:22;;;;;;;;;6.00;5.00;;;;;20.67;46.23;98716.66;6089082;28;97068;-61
2021/09/25 02:39:28;;;;;;;;;4.00;4.00;;;;;20.66;46.51;98720.50;6090451;28;97472;-59
2021/09/25 02:42:31;;;;;;;;;4.25;4.25;;;;;20.65;46.26;98721.59;6073690;28;96834;-61
2021/09/25 02:45:35;;;;;;;;;5.80;4.20;;;;;20.67;46.22;98724.88;6090066;28;96442;-61
2021/09/25 02:48:38;;;;;;;;;5.00;5.00;;;;;20.62;46.19;98724.94;6089783;28;96678;-60
2021/09/25 02:51:42;;;;;;;;;5.00;4.00;;;;;20.61;46.14;98732.31;6090409;28;96575;-60
2021/09/25 02:54:47;;;;;;;;;6.00;5.00;;;;;20.56;46.53;98724.16;6090344;28;96891;-61
2021/09/25 02:57:50;;;;;;;;;5.00;4.20;;;;;20.57;46.34;98727.72;6090292;28;96703;-60
2021/09/25 03:00:54;;;;;;;;;5.00;4.00;;;;;20.55;46.62;98727.19;6090161;28;96510;-62
2021/09/25 03:03:58;;;;;;;;;5.00;5.00;;;;;20.42;46.69;98708.72;6072434;28;99510;-63
2021/09/25 03:07:01;;;;;;;;;4.80;4.80;;;;;20.55;46.69;98736.22;6073224;28;96714;-64
2021/09/25 03:10:07;;;;;;;;;5.00;4.00;;;;;20.55;46.73;98724.44;6090270;28;96754;-63
2021/09/25 03:13:10;;;;;;;;;5.40;5.00;;;;;20.58;46.56;98732.06;6090284;28;97064;-61
2021/09/25 03:16:16;;;;;;;;;5.00;4.00;;;;;20.61;46.77;98731.50;6090233;28;97061;-64
2021/09/25 03:19:19;;;;;;;;;6.00;5.00;;;;;20.61;46.72;98726.03;6089019;28;97535;-61
2021/09/25 03:22:23;;;;;;;;;4.75;4.25;;;;;20.58;46.87;98727.41;6091963;28;96742;-63
2021/09/25 03:25:27;;;;;;;;;6.40;5.40;;;;;20.53;47.02;98729.38;6093873;28;97485;-62
2021/09/25 03:28:30;;;;;;;;;5.00;4.00;;;;;20.50;47.15;98727.25;6093081;28;96568;-62
2021/09/25 03:31:34;;;;;;;;;4.75;4.75;;;;;20.50;47.18;98725.31;6093807;28;97506;-62
2021/09/25 03:34:37;;;;;;;;;5.40;4.40;;;;;20.52;46.94;98733.25;6093262;28;97883;-64
2021/09/25 03:37:40;;;;;;;;;4.00;4.00;;;;;20.55;46.46;98733.47;6091945;28;97510;-63
2021/09/25 03:40:45;;;;;;;;;5.20;4.80;;;;;20.60;46.75;98738.09;6074296;28;97437;-63
2021/09/25 03:43:50;;;;;;;;;5.60;4.00;;;;;20.63;46.75;98734.75;6093740;28;97616;-63
2021/09/25 03:46:55;;;;;;;;;6.00;6.00;;;;;20.60;46.54;98730.69;6093914;28;96950;-64
2021/09/25 03:49:58;;;;;;;;;5.00;4.00;;;;;20.61;46.69;98734.25;6091271;28;97895;-63
2021/09/25 03:53:01;;;;;;;;;6.00;5.00;;;;;20.60;46.94;98740.81;6091456;28;97525;-61
2021/09/25 03:56:08;;;;;;;;;5.00;4.40;;;;;20.49;46.65;98731.91;6091135;28;97589;-62
2021/09/25 03:59:11;;;;;;;;;4.00;4.00;;;;;20.56;47.03;98745.25;6091649;28;96574;-63
2021/09/25 04:02:14;;;;;;;;;4.00;4.00;;;;;20.60;46.81;98746.31;6090761;28;97389;-62
2021/09/25 04:05:18;;;;;;;;;6.00;5.00;;;;;20.60;46.94;98740.81;6105077;28;97414;-62
2021/09/25 04:08:22;;;;;;;;;5.00;4.20;;;;;20.65;46.46;98746.25;6093187;28;98107;-61
2021/09/25 04:11:28;;;;;;;;;6.00;6.00;;;;;20.63;46.43;98748.44;6092862;28;97309;-60
2021/09/25 04:14:31;;;;;;;;;5.25;5.00;;;;;20.66;46.39;98756.09;6093002;28;96554;-63
2021/09/25 04:17:35;;;;;;;;;6.00;6.00;;;;;20.62;46.39;98761.31;6075716;28;96999;-63
2021/09/25 04:20:39;;;;;;;;;5.00;5.00;;;;;20.66;47.12;98759.66;6092960;28;96553;-60
2021/09/25 04:23:42;;;;;;;;;4.33;4.33;;;;;20.63;47.54;98767.63;6075913;28;97351;-64
2021/09/25 04:26:47;;;;;;;;;4.20;4.00;;;;;20.52;47.90;98766.94;6093208;28;96392;-59
2021/09/25 04:29:50;;;;;;;;;4.00;4.00;;;;;20.43;47.66;98771.38;6092545;28;97498;-61
2021/09/25 04:32:53;;;;;;;;;6.00;5.00;;;;;20.42;47.91;98769.78;6091985;28;96748;-59
2021/09/25 04:35:57;;;;;;;;;4.60;4.00;;;;;20.36;47.97;98765.44;6092260;28;98014;-60
2021/09/25 04:39:01;;;;;;;;;4.50;4.50;;;;;20.42;48.10;98778.00;6091558;28;97466;-61
2021/09/25 04:42:06;;;;;;;;;6.00;5.00;;;;;20.38;47.85;98774.16;6087036;28;96677;-61
2021/09/25 04:45:12;;;;;;;;;4.25;4.25;;;;;20.39;48.20;98773.06;6092918;28;96342;-59
2021/09/25 04:48:15;;;;;;;;;6.00;5.00;;;;;20.35;48.20;98780.22;6092963;28;96669;-60
2021/09/25 04:51:19;;;;;;;;;6.00;5.00;;;;;20.32;48.35;98775.34;6074914;28;98021;-60
2021/09/25 04:54:23;;;;;;;;;5.00;5.00;;;;;20.35;48.28;98785.72;6092163;28;97151;-61
2021/09/25 04:57:27;;;;;;;;;6.00;5.00;;;;;20.39;48.10;98778.56;6091164;28;96937;-61
2021/09/25 05:00:31;;;;;;;;;5.00;4.00;;;;;20.35;48.33;98782.16;6090998;28;97645;-61
2021/09/25 05:03:35;;;;;;;;;6.00;5.60;;;;;20.03;48.17;98731.50;6091157;28;97459;-62
2021/09/25 05:06:38;;;;;;;;;5.40;5.00;;;;;20.39;48.18;98785.94;6090961;28;97045;-62
2021/09/25 05:09:41;;;;;;;;;4.80;4.00;;;;;20.46;47.88;98784.53;6091691;28;96622;-62
2021/09/25 05:12:46;;;;;;;;;5.75;5.00;;;;;20.50;47.92;98793.78;6091710;28;96520;-60
2021/09/25 05:15:50;;;;;;;;;4.80;4.00;;;;;20.52;47.70;98802.53;6090855;28;96508;-59
2021/09/25 05:18:53;;;;;;;;;5.60;5.00;;;;;20.52;47.77;98794.31;6091420;28;96904;-63
2021/09/25 05:21:57;;;;;;;;;4.60;4.60;;;;;20.47;47.51;98799.84;6091971;28;96376;-63
2021/09/25 05:25:00;;;;;;;;;6.00;5.40;;;;;20.51;47.74;98800.91;6091650;28;97013;-61
2021/09/25 05:28:05;;;;;;;;;4.50;4.25;;;;;20.54;47.63;98796.75;6074691;28;97000;-60
2021/09/25 05:31:11;;;;;;;;;6.00;5.80;;;;;20.45;48.68;98799.31;6073753;28;98111;-60
2021/09/25 05:34:14;;;;;;;;;5.00;5.00;;;;;20.42;48.67;98797.16;6074417;28;97423;-61
2021/09/25 05:37:18;;;;;;;;;5.00;5.00;;;;;20.39;48.61;98803.19;6072902;28;99591;-61
2021/09/25 05:40:22;;;;;;;;;5.00;5.00;;;;;20.40;48.50;98798.53;6091374;28;97413;-61
2021/09/25 05:43:26;;;;;;;;;4.60;4.60;;;;;20.44;48.30;98805.88;6089900;28;97551;-61
2021/09/25 05:46:30;;;;;;;;;6.80;5.00;;;;;20.41;48.48;98806.47;6088707;28;98041;-62
2021/09/25 05:49:33;;;;;;;;;8.00;7.00;;;;;20.46;48.68;98806.44;6089340;28;96662;-59
2021/09/25 05:52:36;;;;;;;;;7.00;6.00;;;;;20.46;48.18;98805.59;6089769;28;96592;-61
2021/09/25 05:55:41;;;;;;;;;5.40;5.40;;;;;20.51;48.31;98803.63;6089305;28;97489;-61
2021/09/25 05:58:46;;;;;;;;;6.00;6.00;;;;;20.57;48.42;98802.50;6090392;28;97467;-63
2021/09/25 06:01:50;;;;;;;;;5.00;5.00;;;;;20.60;47.95;98806.56;6089063;28;96580;-60
2021/09/25 06:04:54;;;;;;;;;5.80;5.80;;;;;20.67;47.96;98810.59;6090591;28;96658;-61
2021/09/25 06:07:57;;;;;;;;;5.60;5.00;;;;;20.71;48.14;98813.59;6091169;28;97251;-59
2021/09/25 06:11:00;;;;;;;;;8.00;6.40;;;;;20.77;47.78;98804.19;6090604;28;97625;-61
2021/09/25 06:14:05;;;;;;;;;6.00;6.00;;;;;20.79;48.09;98795.69;6091044;28;96584;-61
2021/09/25 06:17:08;;;;;;;;;5.60;5.00;;;;;20.85;47.75;98809.06;6090901;28;96412;-61
2021/09/25 06:20:12;;;;;;;;;6.00;5.50;;;;;20.92;47.79;98811.44;6091552;28;97412;-59
2021/09/25 06:23:16;;;;;;;;;4.00;4.00;;;;;20.89;47.54;98801.06;6090920;28;97520;-61
2021/09/25 06:26:19;;;;;;;;;6.00;5.60;;;;;21.08;47.62;98832.09;6090194;28;96648;-59
2021/09/25 06:29:24;;;;;;;;;5.50;5.00;;;;;21.17;47.28;98835.84;6090917;28;97498;-60
2021/09/25 06:32:27;;;;;;;;;5.60;4.00;;;;;21.24;46.97;98827.28;6090798;28;96597;-60
2021/09/25 06:35:31;;;;;;;;;6.00;5.00;;;;;21.32;47.06;98830.19;6089933;28;97629;-60
2021/09/25 06:38:34;;;;;;;;;5.80;5.20;;;;;21.34;46.98;98835.38;6073194;28;97479;-61
2021/09/25 06:41:37;;;;;;;;;6.00;5.80;;;;;21.34;47.03;98835.38;6090812;28;97031;-60
2021/09/25 06:44:42;;;;;;;;;7.00;6.40;;;;;21.32;46.84;98829.38;6090460;28;96393;-62
2021/09/25 06:47:45;;;;;;;;;8.00;7.00;;;;;21.14;47.06;98814.50;6088520;28;99669;-61
2021/09/25 06:50:48;;;;;;;;;7.00;7.00;;;;;21.35;46.84;98837.84;6091493;28;97493;-60
2021/09/25 06:53:52;;;;;;;;;6.00;5.40;;;;;21.34;47.31;98835.38;6090224;28;96487;-62
2021/09/25 06:56:55;;;;;;;;;7.60;6.60;;;;;21.33;47.31;98836.50;6089477;28;99767;-60
2021/09/25 07:00:00;;;;;;;;;6.75;5.75;;;;;21.40;47.33;98842.44;6094168;28;97467;-62
2021/09/25 07:03:03;;;;;;;;;5.60;5.60;;;;;21.41;47.09;98847.63;6094142;28;97387;-60
2021/09/25 07:06:07;;;;;;;;;7.00;6.25;;;;;21.37;47.39;98851.25;6094252;28;96618;-63
2021/09/25 07:09:11;;;;;;;;;6.00;6.00;;;;;21.39;47.26;98847.13;6094411;28;96449;-59
2021/09/25 07:12:14;;;;;;;;;7.00;7.00;;;;;21.41;47.75;98849.53;6060231;28;97278;-62
2021/09/25 07:15:18;;;;;;;;;7.00;7.00;;;;;21.50;47.50;98861.53;6094380;28;97416;-61
2021/09/25 07:18:22;;;;;;;;;6.60;6.00;;;;;21.54;47.65;98857.06;6091678;28;98327;-61
2021/09/25 07:21:25;;;;;;;;;6.00;6.00;;;;;21.53;47.75;98855.44;6088496;28;97460;-61
2021/09/25 07:24:28;;;;;;;;;7.00;7.00;;;;;21.54;48.21;98851.59;6074830;28;97888;-59
2021/09/25 07:27:32;;;;;;;;;7.00;6.00;;;;;21.61;47.76;98855.59;6091372;28;98050;-59
2021/09/25 07:30:38;;;;;;;;;8.60;7.00;;;;;21.70;48.02;98857.69;6073336;28;98719;-62
2021/09/25 07:33:41;;;;;;;;;7.25;6.25;;;;;21.83;47.64;98871.50;6074397;28;97735;-61
2021/09/25 07:36:45;;;;;;;;;7.00;7.00;;;;;21.92;47.11;98869.72;6073131;28;100158;-59
2021/09/25 07:39:48;;;;;;;;;7.00;5.40;;;;;21.88;47.03;98856.91;6074987;28;99792;-59
2021/09/25 07:42:52;;;;;;;;;6.00;5.00;;;;;22.03;47.33;98873.19;6090601;28;97461;-60
2021/09/25 07:45:58;;;;;;;;;6.25;6.25;;;;;22.12;46.82;98876.88;6091210;28;97351;-62
2021/09/25 07:49:01;;;;;;;;;6.00;6.00;;;;;22.20;46.70;98880.88;6093168;28;97480;-59
2021/09/25 07:52:05;;;;;;;;;6.00;6.00;;;;;22.25;46.98;98886.28;6093096;28;96614;-62
2021/09/25 07:55:10;;;;;;;;;6.00;5.20;;;;;22.34;46.54;98884.50;6092322;28;96636;-61
2021/09/25 07:58:13;;;;;;;;;5.20;5.00;;;;;22.32;46.64;98871.09;6091981;28;98027;-61
2021/09/25 08:01:18;;;;;;;;;7.00;6.00;;;;;22.50;46.39;98885.09;6092258;28;96627;-61
2021/09/25 08:04:22;;;;;;;;;7.00;6.00;;;;;22.56;46.30;98881.16;6093364;28;97467;-61
2021/09/25 08:07:25;;;;;;;;;6.60;5.60;;;;;22.67;46.32;98891.69;6093105;28;96534;-59
2021/09/25 08:10:28;;;;;;;;;7.00;6.00;;;;;22.78;46.40;98887.66;6075198;28;97116;-61
2021/09/25 08:13:32;;;;;;;;;6.00;5.00;;;;;22.87;46.17;98890.53;6074826;28;97502;-62
2021/09/25 08:16:36;;;;;;;;;6.00;6.00;;;;;23.01;45.87;98893.31;6091559;28;97192;-62
2021/09/25 08:19:40;;;;;;;;;7.00;6.25;;;;;23.09;45.77;98896.19;6092580;28;97530;-61
2021/09/25 08:22:45;;;;;;;;;5.00;5.00;;;;;23.19;45.42;98898.75;6092780;28;97522;-59
2021/09/25 08:25:48;;;;;;;;;5.20;4.00;;;;;23.27;45.87;98895.28;6093132;28;97624;-59
2021/09/25 08:28:51;;;;;;;;;6.00;5.00;;;;;23.28;45.81;98899.66;6092531;28;96492;-59
2021/09/25 08:31:56;;;;;;;;;7.00;6.00;;;;;23.21;46.03;98873.69;6092455;28;97598;-59
2021/09/25 08:35:00;;;;;;;;;6.40;6.40;;;;;23.51;45.87;98908.03;6092681;28;96379;-62
2021/09/25 08:38:03;;;;;;;;;6.00;5.75;;;;;23.62;45.21;98913.06;6092538;28;96452;-62
2021/09/25 08:41:07;;;;;;;;;5.00;4.60;;;;;23.68;45.09;98916.53;6092862;28;96645;-62
2021/09/25 08:44:11;;;;;;;;;5.60;5.00;;;;;23.70;45.02;98911.53;6092809;28;97496;-61
2021/09/25 08:47:17;;;;;;;;;6.40;6.00;;;;;23.77;44.79;98914.69;6074381;28;99526;-62
2021/09/25 08:50:21;;;;;;;;;7.00;7.00;;;;;23.83;44.55;98920.91;6092813;28;97600;-59
2021/09/25 08:53:24;;;;;;;;;6.40;6.40;;;;;23.96;44.24;98914.53;6075080;28;96924;-59
2021/09/25 08:56:29;;;;;;;;;7.60;7.20;;;;;24.02;44.48;98916.06;6092181;28;97473;-59
2021/09/25 08:59:33;;;;;;;;;9.00;7.00;;;;;24.09;44.12;98916.47;6091616;28;97738;-60
2021/09/25 09:02:37;;;;;;;;;6.00;6.00;;;;;24.16;44.07;98916.84;6090239;28;97607;-63
2021/09/25 09:05:41;;;;;;;;;6.50;5.50;;;;;24.35;44.08;98916.72;6091430;28;96743;-59
2021/09/25 09:08:48;;;;;;;;;8.00;7.40;;;;;24.46;43.69;98916.19;6092194;28;98005;-61
2021/09/25 09:11:52;;;;;;;;;6.00;6.00;;;;;24.75;43.58;98917.69;6088398;28;97469;-59
2021/09/25 09:14:57;;;;;;;;;8.00;7.00;;;;;24.73;43.23;98926.28;6073930;28;97358;-60
2021/09/25 09:18:02;;;;;;;;;7.00;7.00;;;;;24.79;43.12;98915.94;6089920;28;97071;-62
2021/09/25 09:21:08;;;;;;;;;7.00;7.00;;;;;24.82;43.39;98907.88;6091175;28;96978;-59
2021/09/25 09:24:14;;;;;;;;;7.00;6.00;;;;;24.84;43.41;98908.34;6092014;28;96584;-62
2021/09/25 09:27:19;;;;;;;;;8.40;8.00;;;;;24.75;43.63;98910.25;6091658;28;96489;-61
2021/09/25 09:30:22;;;;;;;;;8.20;7.20;;;;;24.67;43.60;98913.75;6091208;28;96670;-62
2021/09/25 09:33:30;;;;;;;;;9.40;8.00;;;;;24.56;43.50;98921.47;6091550;28;96497;-61
2021/09/25 09:36:35;;;;;;;;;7.80;7.80;;;;;24.69;43.99;98922.50;6091532;28;96885;-61
2021/09/25 09:39:38;;;;;;;;;8.00;8.00;;;;;24.76;43.75;98920.16;6090503;28;97432;-60
2021/09/25 09:42:45;;;;;;;;;9.00;7.20;;;;;24.48;43.79;98922.19;6091552;28;96979;-60
2021/09/25 09:45:48;;;;;;;;;9.80;8.80;;;;;24.70;43.96;98921.41;6091572;28;97494;-61
2021/09/25 09:48:56;;;;;;;;;10.00;8.00;;;;;24.78;43.95;98922.56;6087430;28;98019;-60
2021/09/25 09:52:02;;;;;;;;;9.00;9.00;;;;;24.75;43.32;98918.50;6090716;28;97554;-60
2021/09/25 09:55:07;;;;;;;;;11.00;9.00;;;;;24.79;43.48;98908.47;6089013;28;97582;-60
2021/09/25 09:58:10;;;;;;;;;8.00;8.00;;;;;24.80;43.65;98906.53;6073337;28;97963;-62
2021/09/25 10:01:14;;;;;;;;;9.00;8.60;;;;;24.80;43.69;98909.28;6091118;28;96660;-62
2021/09/25 10:04:20;;;;;;;;;9.00;8.00;;;;;24.91;43.60;98910.72;6067390;28;96866;-60
2021/09/25 10:07:24;;;;;;;;;8.00;8.00;;;;;24.95;43.38;98908.94;6067635;28;98026;-61
2021/09/25 10:10:28;;;;;;;;;8.40;8.40;;;;;24.98;43.33;98906.34;6066973;28;97403;-60
2021/09/25 10:13:34;;;;;;;;;10.00;8.60;;;;;24.98;43.55;98913.81;6075807;28;96517;-62
2021/09/25 10:16:37;;;;;;;;;9.60;9.00;;;;;24.95;43.19;98912.50;6091285;28;96590;-61
2021/09/25 10:19:44;;;;;;;;;10.00;9.00;;;;;25.07;43.45;98900.88;6090955;28;97464;-60
2021/09/25 10:22:49;;;;;;;;;10.00;10.00;;;;;25.06;42.92;98902.03;6091031;28;97425;-61
2021/09/25 10:25:53;;;;;;;;;10.00;10.00;;;;;25.18;42.81;98904.19;6090424;28;97519;-61
2021/09/25 10:28:59;;;;;;;;;7.20;7.20;;;;;25.14;42.93;98904.03;6089885;28;96616;-59
2021/09/25 10:32:22;;;;;;;;;10.50;9.50;;;;;25.21;42.94;98903.56;6105038;28;96415;-61
2021/09/25 10:35:28;;;;;;;;;9.80;9.00;;;;;25.18;43.08;98909.72;6091220;28;98094;-59
2021/09/25 10:38:34;;;;;;;;;9.00;8.60;;;;;25.23;43.20;98901.28;6090862;28;96859;-60
2021/09/25 10:42:10;;;;;;;;;11.25;9.25;;;;;25.34;42.92;98900.72;6090173;28;96563;-60
2021/09/25 10:45:23;;;;;;;;;9.00;8.00;;;;;25.48;42.63;98902.53;6090562;28;98042;-62
2021/09/25 10:48:29;;;;;;;;;10.00;9.00;;;;;25.61;42.13;98912.72;6090330;28;97233;-60
2021/09/25 10:51:34;;;;;;;;;10.60;10.00;;;;;25.74;42.17;98909.81;6072769;28;97222;-60
2021/09/25 10:54:37;;;;;;;;;12.00;11.00;;;;;25.85;41.93;98902.06;6089704;28;97452;-61
2021/09/25 10:57:40;;;;;;;;;10.60;9.60;;;;;25.96;42.00;98903.34;6090444;28;97822;-62
2021/09/25 11:00:52;;;;;;;;;10.40;10.00;;;;;26.06;42.30;98905.81;6088217;28;98467;-60
2021/09/25 11:04:07;;;;;;;;;10.00;10.00;;;;;26.12;41.90;98903.72;6090513;28;97338;-60
2021/09/25 11:07:36;;;;;;;;;10.00;9.00;;;;;26.11;41.93;98907.59;6087722;28;99050;-63
2021/09/25 11:11:09;;;;;;;;;12.00;11.00;;;;;26.26;41.08;98901.66;6089528;28;97145;-59
2021/09/25 11:14:15;;;;;;;;;10.60;10.00;;;;;26.35;40.87;98902.47;6090465;28;97165;-59
2021/09/25 11:17:27;;;;;;;;;11.50;11.00;;;;;26.48;40.39;98908.97;6088828;28;96616;-60
2021/09/25 11:20:34;;;;;;;;;11.00;10.25;;;;;26.33;40.01;98873.53;6090521;28;96870;-61
2021/09/25 11:23:46;;;;;;;;;13.00;12.00;;;;;26.50;40.19;98896.44;6090094;28;97449;-61
2021/09/25 11:26:50;;;;;;;;;11.00;10.00;;;;;26.63;40.33;98873.31;6089742;28;97485;-61
2021/09/25 11:29:57;;;;;;;;;13.40;11.00;;;;;26.89;40.12;98894.63;6089501;28;97242;-58
2021/09/25 11:33:02;;;;;;;;;12.00;11.00;;;;;27.06;39.41;98897.38;6089755;28;97345;-61
2021/09/25 11:36:09;;;;;;;;;12.00;11.00;;;;;27.21;39.31;98891.31;6089657;28;97469;-61
2021/09/25 11:39:14;;;;;;;;;11.00;10.00;;;;;27.28;39.35;98893.53;6088900;28;97673;-63
2021/09/25 11:42:19;;;;;;;;;13.20;11.20;;;;;27.36;39.53;98889.94;6090906;28;97452;-60
2021/09/25 11:45:22;;;;;;;;;9.00;9.00;;;;;27.50;39.46;98901.66;6092136;28;96611;-59
2021/09/25 11:48:28;;;;;;;;;11.00;10.20;;;;;27.64;38.76;98879.25;6094002;28;97525;-60
2021/09/25 11:51:31;;;;;;;;;13.00;11.00;;;;;27.61;38.71;98885.47;6092309;28;96708;-62
2021/09/25 11:54:39;;;;;;;;;15.00;13.00;;;;;27.72;38.58;98887.50;6093596;28;97374;-61
2021/09/25 11:57:47;;;;;;;;;16.00;11.40;;;;;27.95;38.98;98886.06;6093571;28;97369;-60
2021/09/25 12:00:53;;;;;;;;;10.00;9.25;;;;;28.04;38.82;98879.66;6075221;28;98756;-61
2021/09/25 12:03:56;;;;;;;;;8.75;8.25;;;;;28.04;38.62;98877.72;6093056;28;96482;-61
2021/09/25 12:07:00;;;;;;;;;11.00;11.00;;;;;27.82;38.85;98884.34;6093349;28;97444;-60
2021/09/25 12:10:05;;;;;;;;;12.00;11.00;;;;;27.67;39.23;98884.94;6075949;28;99958;-62
2021/09/25 12:13:11;;;;;;;;;11.00;10.00;;;;;27.57;39.75;98882.53;6075282;28;96621;-62
2021/09/25 12:16:34;;;;;;;;;13.00;12.00;;;;;27.43;39.74;98885.50;6093064;28;96981;-62
2021/09/25 12:19:37;;;;;;;;;10.00;9.00;;;;;27.38;40.24;98885.69;6093538;28;96447;-60
2021/09/25 12:22:45;;;;;;;;;13.00;11.00;;;;;27.16;40.60;98880.41;6092566;28;97474;-60
2021/09/25 12:25:51;;;;;;;;;10.00;10.00;;;;;26.94;40.86;98888.94;6076078;28;96430;-60
2021/09/25 12:28:56;;;;;;;;;11.00;10.60;;;;;26.88;41.45;98898.56;6092975;28;97476;-59
2021/09/25 12:32:01;;;;;;;;;10.50;10.00;;;;;26.73;40.95;98897.88;6073622;28;96836;-61
2021/09/25 12:35:17;;;;;;;;;13.00;11.00;;;;;26.64;40.86;98880.50;6075750;28;96329;-62
2021/09/25 12:38:21;;;;;;;;;8.00;7.60;;;;;26.60;40.51;98892.53;6069205;28;96555;-59
2021/09/25 12:41:28;;;;;;;;;8.20;8.00;;;;;26.64;40.40;98888.78;6065168;28;96888;-62
2021/09/25 12:44:34;;;;;;;;;8.00;7.20;;;;;26.84;40.48;98890.06;6088796;28;97412;-59
2021/09/25 12:47:38;;;;;;;;;10.00;8.00;;;;;26.91;40.03;98884.88;6091095;28;97027;-61
2021/09/25 12:50:48;;;;;;;;;10.00;8.50;;;;;27.00;40.43;98885.66;6091564;28;97494;-62
2021/09/25 12:53:52;;;;;;;;;9.00;8.00;;;;;27.06;39.99;98884.34;6091200;28;97582;-59
2021/09/25 12:56:59;;;;;;;;;10.00;9.20;;;;;27.07;39.88;98877.66;6073276;28;97162;-60
2021/09/25 13:00:04;;;;;;;;;9.00;7.60;;;;;27.13;40.25;98876.34;6089260;28;98220;-63
2021/09/25 13:03:11;;;;;;;;;10.00;9.00;;;;;27.07;39.70;98863.03;6087699;28;97411;-62
2021/09/25 13:06:19;;;;;;;;;10.00;9.00;;;;;27.00;39.99;98879.31;6076804;28;97573;-61
2021/09/25 13:09:23;;;;;;;;;10.00;10.00;;;;;26.81;40.55;98876.06;6090238;28;97514;-61
2021/09/25 13:12:29;;;;;;;;;10.00;8.40;;;;;26.81;40.52;98882.44;6090289;28;98057;-61
2021/09/25 13:15:39;;;;;;;;;10.00;10.00;;;;;26.74;40.46;98880.16;6090242;28;96697;-62
2021/09/25 13:18:42;;;;;;;;;8.00;8.00;;;;;26.67;40.86;98879.84;6092436;28;96541;-62
2021/09/25 13:21:46;;;;;;;;;9.25;9.25;;;;;26.63;40.90;98889.91;6092359;28;96745;-60
2021/09/25 13:24:51;;;;;;;;;11.00;10.40;;;;;26.50;41.32;98884.56;6092366;28;96792;-59
2021/09/25 13:27:58;;;;;;;;;9.60;9.60;;;;;26.45;41.18;98881.97;6089832;28;96643;-59
2021/09/25 13:31:01;;;;;;;;;9.00;9.00;;;;;26.38;41.60;98881.66;6090460;28;97201;-59
2021/09/25 13:34:05;;;;;;;;;10.60;9.60;;;;;26.32;41.78;98889.28;6071685;28;97432;-62
2021/09/25 13:37:08;;;;;;;;;10.00;9.00;;;;;26.11;41.93;98883.56;6090004;28;97545;-63
2021/09/25 13:40:13;;;;;;;;;9.75;9.25;;;;;26.12;42.21;98893.47;6089897;28;97539;-63
2021/09/25 13:43:17;;;;;;;;;9.60;9.00;;;;;26.08;42.70;98888.94;6088806;28;97640;-62
2021/09/25 13:46:22;;;;;;;;;11.00;10.00;;;;;25.98;42.77;98886.47;6091936;28;97471;-63
2021/09/25 13:49:26;;;;;;;;;10.20;8.80;;;;;26.08;42.68;98886.16;6086742;28;97370;-62
2021/09/25 13:52:29;;;;;;;;;9.75;9.00;;;;;26.06;42.65;98896.72;6089823;28;96575;-62
2021/09/25 13:55:33;;;;;;;;;9.75;8.00;;;;;25.95;42.86;98885.16;6089679;28;97491;-59
2021/09/25 13:58:37;;;;;;;;;11.20;10.80;;;;;25.97;43.01;98893.13;6089581;28;97191;-60
2021/09/25 14:01:41;;;;;;;;;10.25;10.25;;;;;25.97;43.26;98885.66;6088978;28;96731;-62
2021/09/25 14:04:45;;;;;;;;;10.40;10.40;;;;;26.03;43.09;98898.19;6087710;28;97255;-59
2021/09/25 14:07:48;;;;;;;;;10.00;9.00;;;;;26.05;43.34;98889.56;6088558;28;97423;-61
2021/09/25 14:10:52;;;;;;;;;10.00;8.00;;;;;26.03;43.51;98891.84;6089100;28;96589;-62
2021/09/25 14:13:59;;;;;;;;;12.00;10.00;;;;;26.05;43.19;98901.41;6088536;28;97295;-62
2021/09/25 14:17:02;;;;;;;;;12.00;11.00;;;;;26.06;43.35;98893.94;6089353;28;96761;-60
2021/09/25 14:20:07;;;;;;;;;9.20;9.00;;;;;26.04;43.33;98894.28;6091271;28;98165;-62
2021/09/25 14:23:11;;;;;;;;;11.60;10.40;;;;;25.94;42.59;98893.78;6089985;28;97461;-59
2021/09/25 14:26:15;;;;;;;;;10.00;9.00;;;;;25.93;43.15;98903.19;6072852;28;100097;-60